Terminal Aerodrome Forecast
Issued by NWS Greer, SC

Home | Current Version | Previous Version | Text Only | Print | Product List | Glossary On
Versions: 1 2 3 4 5 6 7 8 9 10 11 12 13 14 15 16 17 18 19 20 21 22 23 24 25 26 27 28 29 30 31 32 33 34 35 36 37 38 39 40 41 42 43 44
000
FTUS42 KGSP 280529
TAFAVL
TAF
KAVL 280529Z 2806/2906 00000KT P6SM SCT040 OVC100
     FM280800 33003KT 5SM BR SCT045
      TEMPO 2810/2813 2SM BR SCT015 BKN030
     FM281300 33003KT P6SM SCT025
     FM281600 34005KT P6SM BKN060
     FM281900 16006KT P6SM BKN040 PROB30 2820/2824 4SM TSRA
      BKN030CB=

USA.gov is the U.S. government's official web portal to all federal, state and local government web resources and services.